sensor_id;sensor_type;location;lat;lon;timestamp;temperature;humidity
1351;DHT22;669;50.206;9.998;2024-01-25T00:01:12;7.20;6.80
1351;DHT22;669;50.206;9.998;2024-01-25T00:03:40;7.10;7.30
1351;DHT22;669;50.206;9.998;2024-01-25T00:06:09;7.10;7.40
1351;DHT22;669;50.206;9.998;2024-01-25T00:08:38;7.10;7.60
1351;DHT22;669;50.206;9.998;2024-01-25T00:11:06;7.10;7.50
1351;DHT22;669;50.206;9.998;2024-01-25T00:13:35;7.10;7.70
1351;DHT22;669;50.206;9.998;2024-01-25T00:16:05;7.10;7.90
1351;DHT22;669;50.206;9.998;2024-01-25T00:18:33;7.10;7.70
1351;DHT22;669;50.206;9.998;2024-01-25T00:21:01;7.20;7.50
1351;DHT22;669;50.206;9.998;2024-01-25T00:23:29;7.10;7.80
1351;DHT22;669;50.206;9.998;2024-01-25T00:25:58;7.10;7.90
1351;DHT22;669;50.206;9.998;2024-01-25T00:28:26;7.10;7.80
1351;DHT22;669;50.206;9.998;2024-01-25T00:30:55;7.10;8.10
1351;DHT22;669;50.206;9.998;2024-01-25T00:33:23;7.10;8.10
1351;DHT22;669;50.206;9.998;2024-01-25T00:35:52;7.10;8.30
1351;DHT22;669;50.206;9.998;2024-01-25T00:38:21;7.10;7.90
1351;DHT22;669;50.206;9.998;2024-01-25T00:40:49;7.10;7.90
1351;DHT22;669;50.206;9.998;2024-01-25T00:43:19;7.20;7.80
1351;DHT22;669;50.206;9.998;2024-01-25T00:45:48;7.10;8.10
1351;DHT22;669;50.206;9.998;2024-01-25T00:48:16;7.10;8.10
1351;DHT22;669;50.206;9.998;2024-01-25T00:50:45;7.00;8.30
1351;DHT22;669;50.206;9.998;2024-01-25T00:53:13;7.00;8.60
1351;DHT22;669;50.206;9.998;2024-01-25T00:55:42;7.00;8.80
1351;DHT22;669;50.206;9.998;2024-01-25T00:58:10;7.00;8.80
1351;DHT22;669;50.206;9.998;2024-01-25T01:00:40;7.00;8.70
1351;DHT22;669;50.206;9.998;2024-01-25T01:03:09;7.00;8.70
1351;DHT22;669;50.206;9.998;2024-01-25T01:05:38;7.00;8.70
1351;DHT22;669;50.206;9.998;2024-01-25T01:08:07;7.00;8.50
1351;DHT22;669;50.206;9.998;2024-01-25T01:10:36;7.00;9.00
1351;DHT22;669;50.206;9.998;2024-01-25T01:13:04;7.00;9.00
1351;DHT22;669;50.206;9.998;2024-01-25T01:15:32;7.00;9.00
1351;DHT22;669;50.206;9.998;2024-01-25T01:18:01;7.00;9.20
1351;DHT22;669;50.206;9.998;2024-01-25T01:20:29;7.10;9.10
1351;DHT22;669;50.206;9.998;2024-01-25T01:22:57;7.10;9.10
1351;DHT22;669;50.206;9.998;2024-01-25T01:25:25;7.10;9.10
1351;DHT22;669;50.206;9.998;2024-01-25T01:27:53;7.10;9.10
1351;DHT22;669;50.206;9.998;2024-01-25T01:30:21;7.10;9.00
1351;DHT22;669;50.206;9.998;2024-01-25T01:32:49;7.10;9.20
1351;DHT22;669;50.206;9.998;2024-01-25T01:35:19;7.00;9.40
1351;DHT22;669;50.206;9.998;2024-01-25T01:37:47;7.10;9.20
1351;DHT22;669;50.206;9.998;2024-01-25T01:40:16;7.10;9.20
1351;DHT22;669;50.206;9.998;2024-01-25T01:42:45;7.10;9.00
1351;DHT22;669;50.206;9.998;2024-01-25T01:45:13;7.20;9.10
1351;DHT22;669;50.206;9.998;2024-01-25T01:47:41;7.20;8.90
1351;DHT22;669;50.206;9.998;2024-01-25T01:50:10;7.20;8.80
1351;DHT22;669;50.206;9.998;2024-01-25T01:52:40;7.20;9.00
1351;DHT22;669;50.206;9.998;2024-01-25T01:55:08;7.20;9.10
1351;DHT22;669;50.206;9.998;2024-01-25T01:57:37;7.20;8.90
1351;DHT22;669;50.206;9.998;2024-01-25T02:00:08;7.20;8.90
1351;DHT22;669;50.206;9.998;2024-01-25T02:02:36;7.20;9.10
1351;DHT22;669;50.206;9.998;2024-01-25T02:05:05;7.20;9.40
1351;DHT22;669;50.206;9.998;2024-01-25T02:07:33;7.20;9.40
1351;DHT22;669;50.206;9.998;2024-01-25T02:10:04;7.20;9.80
1351;DHT22;669;50.206;9.998;2024-01-25T02:12:32;7.20;10.70
1351;DHT22;669;50.206;9.998;2024-01-25T02:15:00;7.10;11.70
1351;DHT22;669;50.206;9.998;2024-01-25T02:17:28;7.00;12.20
1351;DHT22;669;50.206;9.998;2024-01-25T02:19:57;7.00;13.20
1351;DHT22;669;50.206;9.998;2024-01-25T02:22:27;6.90;13.40
1351;DHT22;669;50.206;9.998;2024-01-25T02:24:55;6.90;13.40
1351;DHT22;669;50.206;9.998;2024-01-25T02:27:23;6.90;13.40
1351;DHT22;669;50.206;9.998;2024-01-25T02:29:51;6.80;13.30
1351;DHT22;669;50.206;9.998;2024-01-25T02:32:19;6.80;13.10
1351;DHT22;669;50.206;9.998;2024-01-25T02:34:47;6.80;13.00
1351;DHT22;669;50.206;9.998;2024-01-25T02:37:15;6.80;13.10
1351;DHT22;669;50.206;9.998;2024-01-25T02:39:45;6.80;13.00
1351;DHT22;669;50.206;9.998;2024-01-25T02:42:13;6.70;13.10
1351;DHT22;669;50.206;9.998;2024-01-25T02:44:43;6.80;13.00
1351;DHT22;669;50.206;9.998;2024-01-25T02:47:11;6.80;12.90
1351;DHT22;669;50.206;9.998;2024-01-25T02:49:41;6.80;13.00
1351;DHT22;669;50.206;9.998;2024-01-25T02:52:10;6.90;13.00
1351;DHT22;669;50.206;9.998;2024-01-25T02:54:37;6.90;12.60
1351;DHT22;669;50.206;9.998;2024-01-25T02:57:07;6.90;12.30
1351;DHT22;669;50.206;9.998;2024-01-25T02:59:35;7.00;12.10
1351;DHT22;669;50.206;9.998;2024-01-25T03:02:03;7.00;12.00
1351;DHT22;669;50.206;9.998;2024-01-25T03:04:31;7.00;12.10
1351;DHT22;669;50.206;9.998;2024-01-25T03:07:00;7.00;11.50
1351;DHT22;669;50.206;9.998;2024-01-25T03:09:28;7.00;11.50
1351;DHT22;669;50.206;9.998;2024-01-25T03:11:56;6.90;11.60
1351;DHT22;669;50.206;9.998;2024-01-25T03:14:24;6.90;11.60
1351;DHT22;669;50.206;9.998;2024-01-25T03:16:52;6.90;11.50
1351;DHT22;669;50.206;9.998;2024-01-25T03:19:23;6.90;11.70
1351;DHT22;669;50.206;9.998;2024-01-25T03:21:51;6.80;11.50
1351;DHT22;669;50.206;9.998;2024-01-25T03:24:19;6.80;11.40
1351;DHT22;669;50.206;9.998;2024-01-25T03:26:47;6.80;11.60
1351;DHT22;669;50.206;9.998;2024-01-25T03:29:15;6.70;11.80
1351;DHT22;669;50.206;9.998;2024-01-25T03:31:45;6.70;12.00
1351;DHT22;669;50.206;9.998;2024-01-25T03:34:12;6.60;12.00
1351;DHT22;669;50.206;9.998;2024-01-25T03:36:41;6.60;12.20
1351;DHT22;669;50.206;9.998;2024-01-25T03:39:09;6.50;12.50
1351;DHT22;669;50.206;9.998;2024-01-25T03:41:36;6.50;12.80
1351;DHT22;669;50.206;9.998;2024-01-25T03:44:04;6.50;13.10
1351;DHT22;669;50.206;9.998;2024-01-25T03:46:32;6.40;13.10
1351;DHT22;669;50.206;9.998;2024-01-25T03:49:02;6.40;13.20
1351;DHT22;669;50.206;9.998;2024-01-25T03:51:31;6.40;13.70
1351;DHT22;669;50.206;9.998;2024-01-25T03:53:59;6.30;13.80
1351;DHT22;669;50.206;9.998;2024-01-25T03:56:27;6.30;14.10
1351;DHT22;669;50.206;9.998;2024-01-25T03:58:55;6.20;14.20
1351;DHT22;669;50.206;9.998;2024-01-25T04:01:23;6.20;14.20
1351;DHT22;669;50.206;9.998;2024-01-25T04:03:54;6.20;14.20
1351;DHT22;669;50.206;9.998;2024-01-25T04:06:23;6.20;14.40
1351;DHT22;669;50.206;9.998;2024-01-25T04:08:51;6.20;14.40
1351;DHT22;669;50.206;9.998;2024-01-25T04:11:19;6.10;14.40
1351;DHT22;669;50.206;9.998;2024-01-25T04:13:47;6.10;14.80
1351;DHT22;669;50.206;9.998;2024-01-25T04:16:16;6.10;15.70
1351;DHT22;669;50.206;9.998;2024-01-25T04:18:44;6.20;15.70
1351;DHT22;669;50.206;9.998;2024-01-25T04:21:11;6.10;15.40
1351;DHT22;669;50.206;9.998;2024-01-25T04:23:40;6.10;15.40
1351;DHT22;669;50.206;9.998;2024-01-25T04:26:08;6.10;15.80
1351;DHT22;669;50.206;9.998;2024-01-25T04:28:36;6.20;15.80
1351;DHT22;669;50.206;9.998;2024-01-25T04:31:04;6.20;15.70
1351;DHT22;669;50.206;9.998;2024-01-25T04:33:32;6.20;15.30
1351;DHT22;669;50.206;9.998;2024-01-25T04:36:00;6.20;15.90
1351;DHT22;669;50.206;9.998;2024-01-25T04:38:28;6.10;15.90
1351;DHT22;669;50.206;9.998;2024-01-25T04:40:58;6.10;15.90
1351;DHT22;669;50.206;9.998;2024-01-25T04:43:26;6.10;15.90
1351;DHT22;669;50.206;9.998;2024-01-25T04:45:54;6.10;16.50
1351;DHT22;669;50.206;9.998;2024-01-25T04:48:22;6.10;17.20
1351;DHT22;669;50.206;9.998;2024-01-25T04:50:50;6.10;16.90
1351;DHT22;669;50.206;9.998;2024-01-25T04:53:18;6.10;16.90
1351;DHT22;669;50.206;9.998;2024-01-25T04:55:45;6.10;16.10
1351;DHT22;669;50.206;9.998;2024-01-25T04:58:15;6.00;17.50
1351;DHT22;669;50.206;9.998;2024-01-25T05:00:43;6.00;15.90
1351;DHT22;669;50.206;9.998;2024-01-25T05:03:11;5.80;18.30
1351;DHT22;669;50.206;9.998;2024-01-25T05:05:39;5.80;18.50
1351;DHT22;669;50.206;9.998;2024-01-25T05:08:07;5.80;18.50
1351;DHT22;669;50.206;9.998;2024-01-25T05:10:35;5.70;18.90
1351;DHT22;669;50.206;9.998;2024-01-25T05:13:03;5.80;19.80
1351;DHT22;669;50.206;9.998;2024-01-25T05:15:33;5.90;19.40
1351;DHT22;669;50.206;9.998;2024-01-25T05:18:01;6.00;19.10
1351;DHT22;669;50.206;9.998;2024-01-25T05:20:30;6.00;18.80
1351;DHT22;669;50.206;9.998;2024-01-25T05:23:00;6.00;18.70
1351;DHT22;669;50.206;9.998;2024-01-25T05:25:30;5.90;18.80
1351;DHT22;669;50.206;9.998;2024-01-25T05:27:59;5.90;19.20
1351;DHT22;669;50.206;9.998;2024-01-25T05:30:27;5.80;19.20
1351;DHT22;669;50.206;9.998;2024-01-25T05:32:57;5.80;19.60
1351;DHT22;669;50.206;9.998;2024-01-25T05:35:26;5.90;20.00
1351;DHT22;669;50.206;9.998;2024-01-25T05:37:54;5.90;20.20
1351;DHT22;669;50.206;9.998;2024-01-25T05:40:22;5.90;20.20
1351;DHT22;669;50.206;9.998;2024-01-25T05:42:50;5.90;20.10
1351;DHT22;669;50.206;9.998;2024-01-25T05:45:18;5.80;20.00
1351;DHT22;669;50.206;9.998;2024-01-25T05:47:47;5.90;20.20
1351;DHT22;669;50.206;9.998;2024-01-25T05:50:18;5.80;20.30
1351;DHT22;669;50.206;9.998;2024-01-25T05:52:46;5.80;20.40
1351;DHT22;669;50.206;9.998;2024-01-25T05:55:14;5.80;20.30
1351;DHT22;669;50.206;9.998;2024-01-25T05:57:43;5.80;20.50
1351;DHT22;669;50.206;9.998;2024-01-25T06:00:12;5.80;20.20
1351;DHT22;669;50.206;9.998;2024-01-25T06:02:46;5.80;19.40
1351;DHT22;669;50.206;9.998;2024-01-25T06:05:15;5.80;19.40
1351;DHT22;669;50.206;9.998;2024-01-25T06:07:44;5.80;19.60
1351;DHT22;669;50.206;9.998;2024-01-25T06:10:12;5.70;19.80
1351;DHT22;669;50.206;9.998;2024-01-25T06:12:41;5.80;19.80
1351;DHT22;669;50.206;9.998;2024-01-25T06:15:09;5.80;19.70
1351;DHT22;669;50.206;9.998;2024-01-25T06:17:37;5.80;19.40
1351;DHT22;669;50.206;9.998;2024-01-25T06:20:06;5.80;19.20
1351;DHT22;669;50.206;9.998;2024-01-25T06:22:34;5.80;19.00
1351;DHT22;669;50.206;9.998;2024-01-25T06:25:05;5.80;19.00
1351;DHT22;669;50.206;9.998;2024-01-25T06:27:34;5.80;18.70
1351;DHT22;669;50.206;9.998;2024-01-25T06:30:03;5.80;19.00
1351;DHT22;669;50.206;9.998;2024-01-25T06:32:31;5.70;19.00
1351;DHT22;669;50.206;9.998;2024-01-25T06:34:59;5.70;19.10
1351;DHT22;669;50.206;9.998;2024-01-25T06:37:27;5.70;19.10
1351;DHT22;669;50.206;9.998;2024-01-25T06:39:55;5.60;19.20
1351;DHT22;669;50.206;9.998;2024-01-25T06:42:25;5.60;19.50
1351;DHT22;669;50.206;9.998;2024-01-25T06:44:53;5.60;19.40
1351;DHT22;669;50.206;9.998;2024-01-25T06:47:21;5.50;19.40
1351;DHT22;669;50.206;9.998;2024-01-25T06:49:50;5.50;19.60
1351;DHT22;669;50.206;9.998;2024-01-25T06:52:19;5.50;19.90
1351;DHT22;669;50.206;9.998;2024-01-25T06:54:47;5.50;19.40
1351;DHT22;669;50.206;9.998;2024-01-25T06:57:16;5.40;19.30
1351;DHT22;669;50.206;9.998;2024-01-25T06:59:45;5.40;20.50
1351;DHT22;669;50.206;9.998;2024-01-25T07:02:15;5.50;20.00
1351;DHT22;669;50.206;9.998;2024-01-25T07:04:43;5.40;20.10
1351;DHT22;669;50.206;9.998;2024-01-25T07:07:12;5.40;20.30
1351;DHT22;669;50.206;9.998;2024-01-25T07:09:40;5.30;20.30
1351;DHT22;669;50.206;9.998;2024-01-25T07:12:08;5.30;21.60
1351;DHT22;669;50.206;9.998;2024-01-25T07:14:36;5.30;20.70
1351;DHT22;669;50.206;9.998;2024-01-25T07:17:05;5.30;20.60
1351;DHT22;669;50.206;9.998;2024-01-25T07:19:33;5.20;20.90
1351;DHT22;669;50.206;9.998;2024-01-25T07:22:02;5.20;20.80
1351;DHT22;669;50.206;9.998;2024-01-25T07:24:30;5.20;20.90
1351;DHT22;669;50.206;9.998;2024-01-25T07:26:58;5.10;21.30
1351;DHT22;669;50.206;9.998;2024-01-25T07:29:26;5.10;21.30
1351;DHT22;669;50.206;9.998;2024-01-25T07:31:55;5.10;21.30
1351;DHT22;669;50.206;9.998;2024-01-25T07:34:25;5.00;20.90
1351;DHT22;669;50.206;9.998;2024-01-25T07:36:53;4.90;20.70
1351;DHT22;669;50.206;9.998;2024-01-25T07:39:21;4.90;21.20
1351;DHT22;669;50.206;9.998;2024-01-25T07:41:49;4.80;21.40
1351;DHT22;669;50.206;9.998;2024-01-25T07:44:17;4.80;21.80
1351;DHT22;669;50.206;9.998;2024-01-25T07:46:46;4.90;21.90
1351;DHT22;669;50.206;9.998;2024-01-25T07:49:14;4.90;22.10
1351;DHT22;669;50.206;9.998;2024-01-25T07:51:43;5.00;22.30
1351;DHT22;669;50.206;9.998;2024-01-25T07:54:12;5.20;21.90
1351;DHT22;669;50.206;9.998;2024-01-25T07:56:40;5.30;21.40
1351;DHT22;669;50.206;9.998;2024-01-25T07:59:08;5.40;20.00
1351;DHT22;669;50.206;9.998;2024-01-25T08:01:36;5.50;19.50
1351;DHT22;669;50.206;9.998;2024-01-25T08:04:05;5.70;19.50
1351;DHT22;669;50.206;9.998;2024-01-25T08:06:33;5.80;19.20
1351;DHT22;669;50.206;9.998;2024-01-25T08:09:03;6.00;18.80
1351;DHT22;669;50.206;9.998;2024-01-25T08:11:31;6.10;16.70
1351;DHT22;669;50.206;9.998;2024-01-25T08:13:58;6.20;16.20
1351;DHT22;669;50.206;9.998;2024-01-25T08:16:27;6.40;16.00
1351;DHT22;669;50.206;9.998;2024-01-25T08:18:55;6.60;14.40
1351;DHT22;669;50.206;9.998;2024-01-25T08:21:25;6.80;14.50
1351;DHT22;669;50.206;9.998;2024-01-25T08:23:54;7.10;11.10
1351;DHT22;669;50.206;9.998;2024-01-25T08:26:23;7.30;11.40
1351;DHT22;669;50.206;9.998;2024-01-25T08:28:51;7.40;10.10
1351;DHT22;669;50.206;9.998;2024-01-25T08:31:19;7.50;8.60
1351;DHT22;669;50.206;9.998;2024-01-25T08:33:47;7.50;8.40
1351;DHT22;669;50.206;9.998;2024-01-25T08:36:17;7.50;7.20
1351;DHT22;669;50.206;9.998;2024-01-25T08:38:45;7.50;7.90
1351;DHT22;669;50.206;9.998;2024-01-25T08:41:14;7.50;7.60
1351;DHT22;669;50.206;9.998;2024-01-25T08:43:44;7.50;8.00
1351;DHT22;669;50.206;9.998;2024-01-25T08:46:14;7.40;7.80
1351;DHT22;669;50.206;9.998;2024-01-25T08:48:43;7.40;7.50
1351;DHT22;669;50.206;9.998;2024-01-25T08:51:11;7.40;7.50
1351;DHT22;669;50.206;9.998;2024-01-25T08:53:39;7.30;7.20
1351;DHT22;669;50.206;9.998;2024-01-25T08:56:07;7.30;7.40
1351;DHT22;669;50.206;9.998;2024-01-25T08:58:35;7.40;7.40
1351;DHT22;669;50.206;9.998;2024-01-25T09:01:05;7.40;7.40
1351;DHT22;669;50.206;9.998;2024-01-25T09:03:33;7.40;6.90
1351;DHT22;669;50.206;9.998;2024-01-25T09:06:01;7.40;7.50
1351;DHT22;669;50.206;9.998;2024-01-25T09:08:32;7.50;6.90
1351;DHT22;669;50.206;9.998;2024-01-25T09:11:00;7.50;7.20
1351;DHT22;669;50.206;9.998;2024-01-25T09:13:29;7.60;7.60
1351;DHT22;669;50.206;9.998;2024-01-25T09:15:57;7.70;8.20
1351;DHT22;669;50.206;9.998;2024-01-25T09:18:26;7.80;7.10
1351;DHT22;669;50.206;9.998;2024-01-25T09:20:54;7.80;7.10
1351;DHT22;669;50.206;9.998;2024-01-25T09:23:22;7.90;6.20
1351;DHT22;669;50.206;9.998;2024-01-25T09:25:51;7.90;5.90
1351;DHT22;669;50.206;9.998;2024-01-25T09:28:19;8.00;6.20
1351;DHT22;669;50.206;9.998;2024-01-25T09:30:48;8.00;5.60
1351;DHT22;669;50.206;9.998;2024-01-25T09:33:18;8.00;4.40
1351;DHT22;669;50.206;9.998;2024-01-25T09:35:48;8.10;3.70
1351;DHT22;669;50.206;9.998;2024-01-25T09:38:17;8.20;4.20
1351;DHT22;669;50.206;9.998;2024-01-25T09:40:45;8.30;4.10
1351;DHT22;669;50.206;9.998;2024-01-25T09:43:15;8.30;2.40
1351;DHT22;669;50.206;9.998;2024-01-25T09:45:44;8.40;3.00
1351;DHT22;669;50.206;9.998;2024-01-25T09:48:13;8.60;1.70
1351;DHT22;669;50.206;9.998;2024-01-25T09:50:44;8.70;2.10
1351;DHT22;669;50.206;9.998;2024-01-25T09:53:20;8.70;1.00
1351;DHT22;669;50.206;9.998;2024-01-25T09:55:58;8.70;1.00
1351;DHT22;669;50.206;9.998;2024-01-25T09:58:34;8.60;1.00
1351;DHT22;669;50.206;9.998;2024-01-25T10:01:05;8.50;1.00
1351;DHT22;669;50.206;9.998;2024-01-25T10:03:33;8.50;1.00
1351;DHT22;669;50.206;9.998;2024-01-25T10:06:03;8.50;1.00
1351;DHT22;669;50.206;9.998;2024-01-25T10:08:35;8.60;1.00
1351;DHT22;669;50.206;9.998;2024-01-25T10:11:03;8.60;1.00
1351;DHT22;669;50.206;9.998;2024-01-25T10:13:32;8.70;1.00
1351;DHT22;669;50.206;9.998;2024-01-25T10:16:00;8.70;1.00
1351;DHT22;669;50.206;9.998;2024-01-25T10:18:28;8.80;1.00
1351;DHT22;669;50.206;9.998;2024-01-25T10:20:57;8.90;1.00
1351;DHT22;669;50.206;9.998;2024-01-25T10:23:28;8.90;1.00
1351;DHT22;669;50.206;9.998;2024-01-25T10:25:58;8.90;1.00
1351;DHT22;669;50.206;9.998;2024-01-25T10:28:26;8.90;1.00
1351;DHT22;669;50.206;9.998;2024-01-25T10:30:56;8.80;1.00
1351;DHT22;669;50.206;9.998;2024-01-25T10:33:25;8.90;1.00
1351;DHT22;669;50.206;9.998;2024-01-25T10:35:55;8.80;1.00
1351;DHT22;669;50.206;9.998;2024-01-25T10:38:30;8.90;1.00
1351;DHT22;669;50.206;9.998;2024-01-25T10:41:02;8.90;1.00
1351;DHT22;669;50.206;9.998;2024-01-25T10:43:31;8.90;1.00
1351;DHT22;669;50.206;9.998;2024-01-25T10:46:00;9.00;1.00
1351;DHT22;669;50.206;9.998;2024-01-25T10:48:31;9.00;1.00
1351;DHT22;669;50.206;9.998;2024-01-25T10:51:00;9.10;1.00
1351;DHT22;669;50.206;9.998;2024-01-25T10:53:32;9.00;1.00
1351;DHT22;669;50.206;9.998;2024-01-25T10:56:03;9.00;1.00
1351;DHT22;669;50.206;9.998;2024-01-25T10:58:31;9.00;1.00
1351;DHT22;669;50.206;9.998;2024-01-25T11:01:08;9.10;1.00
1351;DHT22;669;50.206;9.998;2024-01-25T11:03:42;9.00;1.00
1351;DHT22;669;50.206;9.998;2024-01-25T11:06:13;9.10;1.00
1351;DHT22;669;50.206;9.998;2024-01-25T11:08:42;9.10;1.00
1351;DHT22;669;50.206;9.998;2024-01-25T11:11:13;9.10;1.00
1351;DHT22;669;50.206;9.998;2024-01-25T11:13:42;9.00;1.00
1351;DHT22;669;50.206;9.998;2024-01-25T11:16:14;9.10;1.00
1351;DHT22;669;50.206;9.998;2024-01-25T11:18:50;9.10;1.00
1351;DHT22;669;50.206;9.998;2024-01-25T11:21:25;9.20;1.00
1351;DHT22;669;50.206;9.998;2024-01-25T11:24:00;8.90;1.00
1351;DHT22;669;50.206;9.998;2024-01-25T11:26:32;8.90;1.00
1351;DHT22;669;50.206;9.998;2024-01-25T11:29:00;8.90;1.00
1351;DHT22;669;50.206;9.998;2024-01-25T11:31:28;8.90;1.00
1351;DHT22;669;50.206;9.998;2024-01-25T11:33:57;8.90;1.00
1351;DHT22;669;50.206;9.998;2024-01-25T11:36:27;8.90;1.00
1351;DHT22;669;50.206;9.998;2024-01-25T11:38:55;8.90;1.00
1351;DHT22;669;50.206;9.998;2024-01-25T11:41:24;9.00;1.00
1351;DHT22;669;50.206;9.998;2024-01-25T11:43:54;9.00;1.00
1351;DHT22;669;50.206;9.998;2024-01-25T11:46:22;8.90;1.00
1351;DHT22;669;50.206;9.998;2024-01-25T11:48:50;8.90;1.00
1351;DHT22;669;50.206;9.998;2024-01-25T11:51:18;8.90;1.00
1351;DHT22;669;50.206;9.998;2024-01-25T11:53:46;8.90;1.00
1351;DHT22;669;50.206;9.998;2024-01-25T11:56:16;9.10;1.00
1351;DHT22;669;50.206;9.998;2024-01-25T11:58:46;9.10;1.00
1351;DHT22;669;50.206;9.998;2024-01-25T12:01:16;9.20;1.00
1351;DHT22;669;50.206;9.998;2024-01-25T12:03:44;9.20;1.00
1351;DHT22;669;50.206;9.998;2024-01-25T12:06:12;9.20;1.00
1351;DHT22;669;50.206;9.998;2024-01-25T12:08:41;9.10;1.00
1351;DHT22;669;50.206;9.998;2024-01-25T12:11:10;9.00;1.00
1351;DHT22;669;50.206;9.998;2024-01-25T12:13:39;9.10;1.00
1351;DHT22;669;50.206;9.998;2024-01-25T12:16:08;9.20;1.00
1351;DHT22;669;50.206;9.998;2024-01-25T12:18:40;9.20;1.00
1351;DHT22;669;50.206;9.998;2024-01-25T12:21:08;9.10;1.00
1351;DHT22;669;50.206;9.998;2024-01-25T12:23:38;9.00;1.00
1351;DHT22;669;50.206;9.998;2024-01-25T12:26:07;9.00;1.00
1351;DHT22;669;50.206;9.998;2024-01-25T12:28:37;9.00;1.00
1351;DHT22;669;50.206;9.998;2024-01-25T12:31:06;9.00;1.00
1351;DHT22;669;50.206;9.998;2024-01-25T12:33:36;9.00;1.00
1351;DHT22;669;50.206;9.998;2024-01-25T12:36:06;9.20;1.00
1351;DHT22;669;50.206;9.998;2024-01-25T12:38:34;8.90;1.00
1351;DHT22;669;50.206;9.998;2024-01-25T12:41:03;8.80;1.00
1351;DHT22;669;50.206;9.998;2024-01-25T12:43:31;8.80;1.00
1351;DHT22;669;50.206;9.998;2024-01-25T12:46:00;8.70;1.00
1351;DHT22;669;50.206;9.998;2024-01-25T12:48:44;8.80;1.00
1351;DHT22;669;50.206;9.998;2024-01-25T12:51:15;8.80;1.00
1351;DHT22;669;50.206;9.998;2024-01-25T12:53:44;8.80;1.00
1351;DHT22;669;50.206;9.998;2024-01-25T12:56:12;8.80;1.00
1351;DHT22;669;50.206;9.998;2024-01-25T12:58:41;8.90;1.00
1351;DHT22;669;50.206;9.998;2024-01-25T13:01:10;8.90;1.00
1351;DHT22;669;50.206;9.998;2024-01-25T13:03:39;9.00;1.00
1351;DHT22;669;50.206;9.998;2024-01-25T13:06:07;9.00;1.00
1351;DHT22;669;50.206;9.998;2024-01-25T13:08:36;9.00;1.00
1351;DHT22;669;50.206;9.998;2024-01-25T13:11:04;8.90;1.00
1351;DHT22;669;50.206;9.998;2024-01-25T13:13:32;8.90;1.00
1351;DHT22;669;50.206;9.998;2024-01-25T13:16:00;8.90;1.00
1351;DHT22;669;50.206;9.998;2024-01-25T13:18:29;9.00;1.00
1351;DHT22;669;50.206;9.998;2024-01-25T13:20:57;9.00;1.00
1351;DHT22;669;50.206;9.998;2024-01-25T13:23:25;9.00;1.00
1351;DHT22;669;50.206;9.998;2024-01-25T13:25:54;9.00;1.00
1351;DHT22;669;50.206;9.998;2024-01-25T13:28:22;9.10;1.00
1351;DHT22;669;50.206;9.998;2024-01-25T13:30:50;9.10;1.00
1351;DHT22;669;50.206;9.998;2024-01-25T13:33:20;9.20;1.00
1351;DHT22;669;50.206;9.998;2024-01-25T13:35:49;9.10;1.00
1351;DHT22;669;50.206;9.998;2024-01-25T13:38:17;9.20;1.00
1351;DHT22;669;50.206;9.998;2024-01-25T13:40:45;9.00;1.00
1351;DHT22;669;50.206;9.998;2024-01-25T13:43:14;9.00;1.00
1351;DHT22;669;50.206;9.998;2024-01-25T13:45:43;8.90;1.00
1351;DHT22;669;50.206;9.998;2024-01-25T13:48:10;8.90;1.00
1351;DHT22;669;50.206;9.998;2024-01-25T13:50:39;8.80;1.00
1351;DHT22;669;50.206;9.998;2024-01-25T13:53:07;8.80;1.00
1351;DHT22;669;50.206;9.998;2024-01-25T13:55:34;8.80;1.00
1351;DHT22;669;50.206;9.998;2024-01-25T13:58:03;8.80;1.00
1351;DHT22;669;50.206;9.998;2024-01-25T14:00:32;8.70;1.00
1351;DHT22;669;50.206;9.998;2024-01-25T14:03:00;8.70;1.00
1351;DHT22;669;50.206;9.998;2024-01-25T14:05:28;8.70;1.00
1351;DHT22;669;50.206;9.998;2024-01-25T14:07:57;8.50;1.00
1351;DHT22;669;50.206;9.998;2024-01-25T14:10:27;8.50;1.00
1351;DHT22;669;50.206;9.998;2024-01-25T14:12:56;8.40;1.00
1351;DHT22;669;50.206;9.998;2024-01-25T14:15:24;8.40;1.00
1351;DHT22;669;50.206;9.998;2024-01-25T14:17:54;8.40;1.00
1351;DHT22;669;50.206;9.998;2024-01-25T14:20:22;8.30;1.00
1351;DHT22;669;50.206;9.998;2024-01-25T14:22:50;8.30;1.00
1351;DHT22;669;50.206;9.998;2024-01-25T14:25:18;8.40;1.00
1351;DHT22;669;50.206;9.998;2024-01-25T14:27:46;8.40;1.00
1351;DHT22;669;50.206;9.998;2024-01-25T14:30:16;8.40;1.00
1351;DHT22;669;50.206;9.998;2024-01-25T14:32:44;8.40;1.00
1351;DHT22;669;50.206;9.998;2024-01-25T14:35:15;8.30;1.00
1351;DHT22;669;50.206;9.998;2024-01-25T14:37:43;8.30;1.00
1351;DHT22;669;50.206;9.998;2024-01-25T14:40:11;8.30;1.00
1351;DHT22;669;50.206;9.998;2024-01-25T14:42:59;8.20;1.00
1351;DHT22;669;50.206;9.998;2024-01-25T14:45:28;8.20;1.00
1351;DHT22;669;50.206;9.998;2024-01-25T14:47:57;8.20;1.00
1351;DHT22;669;50.206;9.998;2024-01-25T14:50:26;8.10;1.00
1351;DHT22;669;50.206;9.998;2024-01-25T14:52:54;8.10;1.00
1351;DHT22;669;50.206;9.998;2024-01-25T14:55:22;8.00;1.00
1351;DHT22;669;50.206;9.998;2024-01-25T14:57:51;8.00;1.00
1351;DHT22;669;50.206;9.998;2024-01-25T15:00:19;7.90;1.00
1351;DHT22;669;50.206;9.998;2024-01-25T15:02:47;7.90;1.00
1351;DHT22;669;50.206;9.998;2024-01-25T15:05:15;7.80;1.00
1351;DHT22;669;50.206;9.998;2024-01-25T15:07:45;7.80;1.00
1351;DHT22;669;50.206;9.998;2024-01-25T15:10:13;7.70;1.00
1351;DHT22;669;50.206;9.998;2024-01-25T15:12:41;7.60;1.00
1351;DHT22;669;50.206;9.998;2024-01-25T15:15:09;7.50;1.00
1351;DHT22;669;50.206;9.998;2024-01-25T15:17:37;7.50;1.00
1351;DHT22;669;50.206;9.998;2024-01-25T15:20:06;7.50;1.00
1351;DHT22;669;50.206;9.998;2024-01-25T15:22:35;7.40;1.00
1351;DHT22;669;50.206;9.998;2024-01-25T15:25:04;7.30;1.00
1351;DHT22;669;50.206;9.998;2024-01-25T15:27:32;7.20;1.00
1351;DHT22;669;50.206;9.998;2024-01-25T15:30:00;7.10;1.00
1351;DHT22;669;50.206;9.998;2024-01-25T15:32:28;7.00;1.00
1351;DHT22;669;50.206;9.998;2024-01-25T15:34:56;6.90;1.00
1351;DHT22;669;50.206;9.998;2024-01-25T15:37:24;6.80;1.00
1351;DHT22;669;50.206;9.998;2024-01-25T15:39:52;6.70;1.00
1351;DHT22;669;50.206;9.998;2024-01-25T15:42:22;6.60;1.00
1351;DHT22;669;50.206;9.998;2024-01-25T15:44:54;6.50;1.90
1351;DHT22;669;50.206;9.998;2024-01-25T15:47:22;6.40;2.50
1351;DHT22;669;50.206;9.998;2024-01-25T15:49:50;6.30;2.40
1351;DHT22;669;50.206;9.998;2024-01-25T15:52:18;6.20;3.20
1351;DHT22;669;50.206;9.998;2024-01-25T15:54:47;6.10;3.50
1351;DHT22;669;50.206;9.998;2024-01-25T15:57:15;6.00;4.60
1351;DHT22;669;50.206;9.998;2024-01-25T15:59:45;6.00;5.50
1351;DHT22;669;50.206;9.998;2024-01-25T16:02:14;5.90;5.90
1351;DHT22;669;50.206;9.998;2024-01-25T16:04:41;5.80;5.80
1351;DHT22;669;50.206;9.998;2024-01-25T16:07:09;5.70;6.30
1351;DHT22;669;50.206;9.998;2024-01-25T16:09:37;5.70;5.80
1351;DHT22;669;50.206;9.998;2024-01-25T16:12:08;5.60;7.70
1351;DHT22;669;50.206;9.998;2024-01-25T16:14:36;5.50;8.30
1351;DHT22;669;50.206;9.998;2024-01-25T16:17:05;5.40;8.30
1351;DHT22;669;50.206;9.998;2024-01-25T16:19:35;5.40;9.10
1351;DHT22;669;50.206;9.998;2024-01-25T16:22:03;5.30;9.80
1351;DHT22;669;50.206;9.998;2024-01-25T16:24:31;5.30;10.50
1351;DHT22;669;50.206;9.998;2024-01-25T16:26:59;5.20;10.20
1351;DHT22;669;50.206;9.998;2024-01-25T16:29:28;5.10;10.20
1351;DHT22;669;50.206;9.998;2024-01-25T16:31:56;5.10;10.80
1351;DHT22;669;50.206;9.998;2024-01-25T16:34:25;5.10;11.10
1351;DHT22;669;50.206;9.998;2024-01-25T16:36:53;5.10;10.50
1351;DHT22;669;50.206;9.998;2024-01-25T16:39:21;5.00;10.70
1351;DHT22;669;50.206;9.998;2024-01-25T16:41:50;4.90;11.10
1351;DHT22;669;50.206;9.998;2024-01-25T16:44:18;4.90;11.80
1351;DHT22;669;50.206;9.998;2024-01-25T16:46:46;4.90;12.50
1351;DHT22;669;50.206;9.998;2024-01-25T16:49:14;4.80;13.30
1351;DHT22;669;50.206;9.998;2024-01-25T16:51:43;4.80;13.50
1351;DHT22;669;50.206;9.998;2024-01-25T16:54:11;4.80;13.80